createdAt,value
2019-05-20T00:00:23.000Z,0
2019-05-20T00:05:52.000Z,0
2019-05-20T00:08:37.000Z,0
2019-05-20T00:13:47.000Z,0
2019-05-20T00:17:54.000Z,0
2019-05-20T00:19:17.000Z,0
2019-05-20T00:22:01.000Z,0
2019-05-20T00:26:08.000Z,0
2019-05-20T00:27:21.000Z,0
2019-05-20T00:31:19.000Z,0
2019-05-20T00:35:26.000Z,0
2019-05-20T00:44:43.000Z,0
2019-05-20T00:46:05.000Z,0
2019-05-20T00:52:57.000Z,0
2019-05-20T00:54:19.000Z,0
2019-05-20T00:56:55.000Z,0
2019-05-20T00:59:30.000Z,0
2019-05-20T01:00:52.000Z,0
2019-05-20T01:02:15.000Z,0
2019-05-20T01:03:37.000Z,0
2019-05-20T01:06:22.000Z,0
2019-05-20T01:10:29.000Z,0
2019-05-20T01:11:41.000Z,0
2019-05-20T01:15:39.000Z,0
2019-05-20T01:17:01.000Z,0
2019-05-20T01:19:46.000Z,0
2019-05-20T01:21:08.000Z,0
2019-05-20T01:23:53.000Z,0
2019-05-20T01:26:28.000Z,0
2019-05-20T01:29:04.000Z,0
2019-05-20T01:30:26.000Z,0
2019-05-20T01:33:10.000Z,0
2019-05-20T01:34:33.000Z,0
2019-05-20T01:37:17.000Z,0
2019-05-20T01:41:15.000Z,0
2019-05-20T01:42:28.000Z,0
2019-05-20T01:43:50.000Z,0
2019-05-20T01:46:35.000Z,0
2019-05-20T01:53:27.000Z,0
2019-05-20T01:56:02.000Z,0
2019-05-20T01:59:59.000Z,0
2019-05-20T02:01:22.000Z,0
2019-05-20T02:06:51.000Z,0
2019-05-20T02:10:49.000Z,0
2019-05-20T02:13:24.000Z,0
2019-05-20T02:16:08.000Z,0
2019-05-20T02:17:31.000Z,0
2019-05-20T02:18:53.000Z,0
2019-05-20T02:21:38.000Z,0
2019-05-20T02:23:00.000Z,0
2019-05-20T02:25:35.000Z,0
2019-05-20T02:26:48.000Z,0
2019-05-20T02:28:11.000Z,0
2019-05-20T02:30:55.000Z,0
2019-05-20T02:32:18.000Z,0
2019-05-20T02:35:02.000Z,0
2019-05-20T02:36:25.000Z,0
2019-05-20T02:44:20.000Z,0
2019-05-20T02:48:27.000Z,0
2019-05-20T02:55:09.000Z,0
2019-05-20T02:57:44.000Z,0
2019-05-20T03:01:51.000Z,0
2019-05-20T03:03:13.000Z,0
2019-05-20T03:05:58.000Z,0
2019-05-20T03:11:09.000Z,0
2019-05-20T03:12:31.000Z,0
2019-05-20T03:13:53.000Z,0
2019-05-20T03:15:16.000Z,0
2019-05-20T03:16:38.000Z,0
2019-05-20T03:18:00.000Z,0
2019-05-20T03:19:23.000Z,0
2019-05-20T03:20:45.000Z,0
2019-05-20T03:23:30.000Z,5
2019-05-20T03:24:42.000Z,5
2019-05-20T03:28:40.000Z,5
2019-05-20T03:31:25.000Z,11
2019-05-20T03:32:47.000Z,11
2019-05-20T03:34:09.000Z,11
2019-05-20T03:35:32.000Z,11
2019-05-20T03:36:54.000Z,11
2019-05-20T03:38:16.000Z,16
2019-05-20T03:39:29.000Z,16
2019-05-20T03:40:42.000Z,16
2019-05-20T03:43:27.000Z,22
2019-05-20T03:46:12.000Z,22
2019-05-20T03:47:34.000Z,28
2019-05-20T03:50:18.000Z,33
2019-05-20T03:51:41.000Z,39
2019-05-20T03:54:16.000Z,50
2019-05-20T03:55:29.000Z,50
2019-05-20T03:56:51.000Z,56
2019-05-20T03:58:14.000Z,56
2019-05-20T03:59:36.000Z,61
2019-05-20T04:00:58.000Z,67
2019-05-20T04:05:05.000Z,84
2019-05-20T04:07:50.000Z,90
2019-05-20T04:09:03.000Z,90
2019-05-20T04:14:23.000Z,101
2019-05-20T04:15:45.000Z,101
2019-05-20T04:17:07.000Z,106
2019-05-20T04:18:30.000Z,112
2019-05-20T04:19:52.000Z,118
2019-05-20T04:21:14.000Z,123
2019-05-20T04:22:37.000Z,135
2019-05-20T04:23:50.000Z,140
2019-05-20T04:25:03.000Z,146
2019-05-20T04:26:25.000Z,151
2019-05-20T04:27:47.000Z,151
2019-05-20T04:30:32.000Z,146
2019-05-20T04:34:39.000Z,129
2019-05-20T04:38:36.000Z,135
2019-05-20T04:39:49.000Z,135
2019-05-20T04:42:34.000Z,135
2019-05-20T04:43:56.000Z,135
2019-05-20T04:50:48.000Z,151
2019-05-20T04:52:10.000Z,151
2019-05-20T04:53:23.000Z,157
2019-05-20T05:01:28.000Z,185
2019-05-20T05:02:50.000Z,196
2019-05-20T05:08:10.000Z,213
2019-05-20T05:09:23.000Z,225
2019-05-20T05:10:45.000Z,230
2019-05-20T05:12:08.000Z,208
2019-05-20T05:22:57.000Z,225
2019-05-20T05:24:10.000Z,202
2019-05-20T05:32:24.000Z,151
2019-05-20T05:41:41.000Z,219
2019-05-20T05:45:48.000Z,230
2019-05-20T05:48:33.000Z,219
2019-05-20T05:49:55.000Z,213
2019-05-20T05:51:17.000Z,213
2019-05-20T05:52:30.000Z,185
2019-05-20T05:55:06.000Z,191
2019-05-20T05:56:28.000Z,168
2019-05-20T05:59:13.000Z,168
2019-05-20T06:03:20.000Z,180
2019-05-20T06:07:17.000Z,219
2019-05-20T06:13:59.000Z,225
2019-05-20T06:16:44.000Z,230
2019-05-20T06:20:51.000Z,241
2019-05-20T06:22:04.000Z,275
2019-05-20T06:24:39.000Z,348
2019-05-20T06:26:02.000Z,382
2019-05-20T06:28:46.000Z,528
2019-05-20T06:30:08.000Z,551
2019-05-20T06:31:31.000Z,545
2019-05-20T06:34:15.000Z,607
2019-05-20T06:39:26.000Z,658
2019-05-20T06:40:48.000Z,663
2019-05-20T06:44:55.000Z,669
2019-05-20T06:49:02.000Z,630
2019-05-20T06:51:37.000Z,641
2019-05-20T06:52:50.000Z,669
2019-05-20T06:54:13.000Z,736
2019-05-20T06:56:57.000Z,810
2019-05-20T06:58:20.000Z,804
2019-05-20T06:59:42.000Z,765
2019-05-20T07:02:27.000Z,720
2019-05-20T07:05:11.000Z,742
2019-05-20T07:06:24.000Z,731
2019-05-20T07:09:00.000Z,725
2019-05-20T07:11:44.000Z,652
2019-05-20T07:14:29.000Z,607
2019-05-20T07:18:36.000Z,826
2019-05-20T07:19:58.000Z,894
2019-05-20T07:22:24.000Z,798
2019-05-20T07:23:46.000Z,787
2019-05-20T07:26:31.000Z,669
2019-05-20T07:27:53.000Z,635
2019-05-20T07:29:16.000Z,787
2019-05-20T07:30:38.000Z,787
2019-05-20T07:32:00.000Z,725
2019-05-20T07:35:58.000Z,990
2019-05-20T07:37:11.000Z,1141
2019-05-20T07:38:33.000Z,928
2019-05-20T07:41:18.000Z,759
2019-05-20T07:42:40.000Z,843
2019-05-20T07:45:25.000Z,770
2019-05-20T07:46:47.000Z,939
2019-05-20T07:48:09.000Z,1260
2019-05-20T07:49:32.000Z,2143
2019-05-20T07:54:42.000Z,1929
2019-05-20T07:58:49.000Z,1057
2019-05-20T08:01:34.000Z,1411
2019-05-20T08:02:56.000Z,1040
2019-05-20T08:08:07.000Z,680
2019-05-20T08:09:29.000Z,652
2019-05-20T08:10:51.000Z,613
2019-05-20T08:12:14.000Z,635
2019-05-20T08:14:59.000Z,691
2019-05-20T08:16:21.000Z,753
2019-05-20T08:19:05.000Z,810
2019-05-20T08:20:18.000Z,810
2019-05-20T08:21:31.000Z,804
2019-05-20T08:22:53.000Z,798
2019-05-20T08:24:16.000Z,781
2019-05-20T08:25:38.000Z,748
2019-05-20T08:27:00.000Z,703
2019-05-20T08:28:23.000Z,663
2019-05-20T08:29:45.000Z,646
2019-05-20T08:31:07.000Z,635
2019-05-20T08:32:30.000Z,635
2019-05-20T08:33:52.000Z,630
2019-05-20T08:35:05.000Z,618
2019-05-20T08:37:40.000Z,607
2019-05-20T08:39:03.000Z,613
2019-05-20T08:40:26.000Z,624
2019-05-20T08:41:47.000Z,624
2019-05-20T08:43:10.000Z,613
2019-05-20T08:44:33.000Z,624
2019-05-20T08:47:16.000Z,703
2019-05-20T08:48:40.000Z,720
2019-05-20T08:49:52.000Z,714
2019-05-20T08:51:05.000Z,720
2019-05-20T08:52:27.000Z,720
2019-05-20T08:53:50.000Z,703
2019-05-20T08:55:12.000Z,691
2019-05-20T08:56:35.000Z,691
2019-05-20T08:57:57.000Z,686
2019-05-20T09:00:43.000Z,680
2019-05-20T09:02:03.000Z,691
2019-05-20T09:03:26.000Z,703
2019-05-20T09:04:39.000Z,708
2019-05-20T09:05:51.000Z,725
2019-05-20T09:07:14.000Z,765
2019-05-20T09:09:58.000Z,798
2019-05-20T09:11:21.000Z,793
2019-05-20T09:12:43.000Z,798
2019-05-20T09:14:06.000Z,787
2019-05-20T09:18:13.000Z,832
2019-05-20T09:20:38.000Z,855
2019-05-20T09:22:01.000Z,860
2019-05-20T09:23:24.000Z,860
2019-05-20T09:24:45.000Z,871
2019-05-20T09:27:30.000Z,866
2019-05-20T09:28:52.000Z,883
2019-05-20T09:31:37.000Z,883
2019-05-20T09:34:12.000Z,894
2019-05-20T09:38:10.000Z,871
2019-05-20T09:40:54.000Z,916
2019-05-20T09:43:40.000Z,787
2019-05-20T09:45:01.000Z,736
2019-05-20T09:46:24.000Z,781
2019-05-20T09:47:46.000Z,787
2019-05-20T09:48:59.000Z,736
2019-05-20T09:50:12.000Z,675
2019-05-20T09:54:19.000Z,601
2019-05-20T09:55:42.000Z,579
2019-05-20T09:57:03.000Z,562
2019-05-20T09:58:26.000Z,523
2019-05-20T09:59:48.000Z,556
2019-05-20T10:01:11.000Z,663
2019-05-20T10:02:33.000Z,675
2019-05-20T10:03:46.000Z,697
2019-05-20T10:06:21.000Z,585
2019-05-20T10:09:07.000Z,590
2019-05-20T10:11:50.000Z,579
2019-05-20T10:13:13.000Z,562
2019-05-20T10:14:36.000Z,540
2019-05-20T10:15:59.000Z,540
2019-05-20T10:18:32.000Z,556
2019-05-20T10:19:46.000Z,568
2019-05-20T10:21:08.000Z,579
2019-05-20T10:23:52.000Z,601
2019-05-20T10:25:16.000Z,613
2019-05-20T10:26:39.000Z,630
2019-05-20T10:29:24.000Z,658
2019-05-20T10:30:44.000Z,652
2019-05-20T10:33:19.000Z,607
2019-05-20T10:34:32.000Z,585
2019-05-20T10:35:54.000Z,562
2019-05-20T10:37:17.000Z,573
2019-05-20T10:38:39.000Z,601
2019-05-20T10:41:24.000Z,663
2019-05-20T10:42:47.000Z,669
2019-05-20T10:45:31.000Z,613
2019-05-20T10:46:53.000Z,573
2019-05-20T10:48:06.000Z,540
2019-05-20T10:49:19.000Z,517
2019-05-20T10:50:41.000Z,506
2019-05-20T10:52:04.000Z,517
2019-05-20T10:53:26.000Z,517
2019-05-20T10:54:48.000Z,523
2019-05-20T10:57:33.000Z,556
2019-05-20T11:00:18.000Z,568
2019-05-20T11:01:41.000Z,556
2019-05-20T11:02:53.000Z,551
2019-05-20T11:05:28.000Z,540
2019-05-20T11:06:50.000Z,540
2019-05-20T11:08:13.000Z,540
2019-05-20T11:09:35.000Z,556
2019-05-20T11:13:42.000Z,579
2019-05-20T11:15:04.000Z,579
2019-05-20T11:16:27.000Z,568
2019-05-20T11:18:53.000Z,528
2019-05-20T11:20:15.000Z,528
2019-05-20T11:21:37.000Z,523
2019-05-20T11:22:59.000Z,523
2019-05-20T11:24:22.000Z,528
2019-05-20T11:25:44.000Z,534
2019-05-20T11:27:06.000Z,528
2019-05-20T11:28:29.000Z,534
2019-05-20T11:29:51.000Z,517
2019-05-20T11:31:13.000Z,500
2019-05-20T11:32:26.000Z,506
2019-05-20T11:33:39.000Z,528
2019-05-20T11:35:02.000Z,551
2019-05-20T11:36:24.000Z,568
2019-05-20T11:37:46.000Z,568
2019-05-20T11:39:09.000Z,556
2019-05-20T11:40:31.000Z,545
2019-05-20T11:41:53.000Z,511
2019-05-20T11:43:16.000Z,489
2019-05-20T11:44:38.000Z,506
2019-05-20T11:46:00.000Z,523
2019-05-20T11:47:13.000Z,517
2019-05-20T11:48:26.000Z,511
2019-05-20T11:49:48.000Z,517
2019-05-20T11:51:11.000Z,517
2019-05-20T11:52:33.000Z,517
2019-05-20T11:53:55.000Z,528
2019-05-20T11:55:18.000Z,528
2019-05-20T11:56:40.000Z,551
2019-05-20T11:58:02.000Z,556
2019-05-20T11:59:25.000Z,545
2019-05-20T12:02:00.000Z,483
2019-05-20T12:03:13.000Z,461
2019-05-20T12:04:35.000Z,421
2019-05-20T12:05:58.000Z,438
2019-05-20T12:07:20.000Z,489
2019-05-20T12:10:04.000Z,607
2019-05-20T12:12:49.000Z,545
2019-05-20T12:14:11.000Z,478
2019-05-20T12:15:34.000Z,433
2019-05-20T12:16:47.000Z,444
2019-05-20T12:18:00.000Z,450
2019-05-20T12:19:22.000Z,433
2019-05-20T12:20:44.000Z,450
2019-05-20T12:22:07.000Z,495
2019-05-20T12:23:29.000Z,528
2019-05-20T12:24:51.000Z,551
2019-05-20T12:26:14.000Z,534
2019-05-20T12:27:36.000Z,534
2019-05-20T12:28:58.000Z,523
2019-05-20T12:30:21.000Z,534
2019-05-20T12:31:34.000Z,540
2019-05-20T12:35:31.000Z,523
2019-05-20T12:36:53.000Z,528
2019-05-20T12:38:16.000Z,534
2019-05-20T12:41:00.000Z,540
2019-05-20T12:42:23.000Z,523
2019-05-20T12:43:45.000Z,511
2019-05-20T12:45:07.000Z,483
2019-05-20T12:46:20.000Z,461
2019-05-20T12:47:33.000Z,450
2019-05-20T12:50:18.000Z,410
2019-05-20T12:51:40.000Z,393
2019-05-20T12:53:03.000Z,399
2019-05-20T12:54:25.000Z,427
2019-05-20T12:55:47.000Z,416
2019-05-20T12:57:09.000Z,399
2019-05-20T12:58:32.000Z,421
2019-05-20T12:59:54.000Z,427
2019-05-20T13:02:20.000Z,416
2019-05-20T13:03:42.000Z,421
2019-05-20T13:05:05.000Z,393
2019-05-20T13:06:27.000Z,382
2019-05-20T13:07:49.000Z,393
2019-05-20T13:09:12.000Z,399
2019-05-20T13:10:34.000Z,388
2019-05-20T13:11:56.000Z,371
2019-05-20T13:13:19.000Z,343
2019-05-20T13:15:54.000Z,286
2019-05-20T13:17:07.000Z,275
2019-05-20T13:18:29.000Z,270
2019-05-20T13:19:51.000Z,275
2019-05-20T13:21:14.000Z,286
2019-05-20T13:22:36.000Z,286
2019-05-20T13:23:58.000Z,275
2019-05-20T13:25:21.000Z,270
2019-05-20T13:26:43.000Z,275
2019-05-20T13:28:05.000Z,275
2019-05-20T13:29:28.000Z,286
2019-05-20T13:30:41.000Z,286
2019-05-20T13:31:54.000Z,286
2019-05-20T13:33:16.000Z,292
2019-05-20T13:34:38.000Z,298
2019-05-20T13:36:01.000Z,303
2019-05-20T13:37:23.000Z,309
2019-05-20T13:38:45.000Z,309
2019-05-20T13:40:08.000Z,315
2019-05-20T13:41:30.000Z,315
2019-05-20T13:42:52.000Z,315
2019-05-20T13:44:14.000Z,320
2019-05-20T13:45:28.000Z,320
2019-05-20T13:46:40.000Z,315
2019-05-20T13:48:03.000Z,309
2019-05-20T13:49:25.000Z,292
2019-05-20T13:50:47.000Z,292
2019-05-20T13:52:10.000Z,309
2019-05-20T13:53:32.000Z,331
2019-05-20T13:54:54.000Z,354
2019-05-20T13:56:17.000Z,371
2019-05-20T13:57:39.000Z,382
2019-05-20T13:59:01.000Z,393
2019-05-20T14:00:14.000Z,393
2019-05-20T14:01:27.000Z,399
2019-05-20T14:02:49.000Z,405
2019-05-20T14:04:12.000Z,416
2019-05-20T14:05:34.000Z,427
2019-05-20T14:09:41.000Z,466
2019-05-20T14:11:03.000Z,483
2019-05-20T14:12:26.000Z,511
2019-05-20T14:13:48.000Z,534
2019-05-20T14:15:01.000Z,556
2019-05-20T14:16:14.000Z,568
2019-05-20T14:17:36.000Z,579
2019-05-20T14:18:59.000Z,596
2019-05-20T14:20:21.000Z,607
2019-05-20T14:21:43.000Z,613
2019-05-20T14:23:06.000Z,607
2019-05-20T14:24:28.000Z,590
2019-05-20T14:25:50.000Z,562
2019-05-20T14:27:13.000Z,545
2019-05-20T14:28:35.000Z,523
2019-05-20T14:29:48.000Z,500
2019-05-20T14:31:01.000Z,478
2019-05-20T14:32:23.000Z,438
2019-05-20T14:33:45.000Z,360
2019-05-20T14:35:08.000Z,219
2019-05-20T14:36:30.000Z,157
2019-05-20T14:37:52.000Z,140
2019-05-20T14:39:16.000Z,140
2019-05-20T14:40:37.000Z,118
2019-05-20T14:41:59.000Z,112
2019-05-20T14:43:22.000Z,135
2019-05-20T14:44:35.000Z,157
2019-05-20T14:45:48.000Z,185
2019-05-20T14:47:10.000Z,247
2019-05-20T14:48:32.000Z,292
2019-05-20T14:49:54.000Z,292
2019-05-20T14:51:17.000Z,309
2019-05-20T14:52:39.000Z,281
2019-05-20T14:54:01.000Z,202
2019-05-20T14:55:24.000Z,208
2019-05-20T14:56:46.000Z,196
2019-05-20T14:58:08.000Z,208
2019-05-20T14:59:21.000Z,236
2019-05-20T15:00:34.000Z,258
2019-05-20T15:01:57.000Z,225
2019-05-20T15:08:48.000Z,213
2019-05-20T15:11:33.000Z,191
2019-05-20T15:12:55.000Z,180
2019-05-20T15:14:08.000Z,168
2019-05-20T15:15:21.000Z,191
2019-05-20T15:18:06.000Z,208
2019-05-20T15:22:13.000Z,146
2019-05-20T15:26:20.000Z,84
2019-05-20T15:30:08.000Z,33
2019-05-20T15:31:30.000Z,33
2019-05-20T15:32:53.000Z,33
2019-05-20T15:35:37.000Z,33
2019-05-20T15:36:59.000Z,28
2019-05-20T15:38:22.000Z,28
2019-05-20T15:39:44.000Z,33
2019-05-20T15:42:29.000Z,45
2019-05-20T15:43:42.000Z,50
2019-05-20T15:44:55.000Z,61
2019-05-20T15:47:39.000Z,84
2019-05-20T15:49:02.000Z,90
2019-05-20T15:53:09.000Z,95
2019-05-20T15:55:53.000Z,95
2019-05-20T15:57:16.000Z,123
2019-05-20T15:58:29.000Z,185
2019-05-20T16:02:26.000Z,168
2019-05-20T16:03:48.000Z,157
2019-05-20T16:06:33.000Z,163
2019-05-20T16:07:55.000Z,157
2019-05-20T16:09:18.000Z,118
2019-05-20T16:10:40.000Z,123
2019-05-20T16:12:02.000Z,90
2019-05-20T16:13:15.000Z,61
2019-05-20T16:14:28.000Z,56
2019-05-20T16:15:51.000Z,56
2019-05-20T16:17:13.000Z,56
2019-05-20T16:19:58.000Z,56
2019-05-20T16:21:20.000Z,56
2019-05-20T16:22:42.000Z,61
2019-05-20T16:24:04.000Z,73
2019-05-20T16:25:27.000Z,78
2019-05-20T16:26:49.000Z,95
2019-05-20T16:29:15.000Z,118
2019-05-20T16:30:37.000Z,129
2019-05-20T16:33:22.000Z,106
2019-05-20T16:34:44.000Z,95
2019-05-20T16:36:07.000Z,95
2019-05-20T16:37:29.000Z,90
2019-05-20T16:38:51.000Z,90
2019-05-20T16:40:14.000Z,95
2019-05-20T16:41:36.000Z,101
2019-05-20T16:42:49.000Z,95
2019-05-20T16:44:02.000Z,95
2019-05-20T16:45:24.000Z,90
2019-05-20T16:46:46.000Z,90
2019-05-20T16:48:09.000Z,84
2019-05-20T16:49:31.000Z,84
2019-05-20T16:50:53.000Z,90
2019-05-20T16:52:16.000Z,84
2019-05-20T16:53:38.000Z,84
2019-05-20T16:55:00.000Z,90
2019-05-20T16:56:23.000Z,95
2019-05-20T16:57:36.000Z,112
2019-05-20T16:58:49.000Z,123
2019-05-20T17:00:11.000Z,123
2019-05-20T17:01:33.000Z,123
2019-05-20T17:02:56.000Z,123
2019-05-20T17:04:18.000Z,123
2019-05-20T17:05:40.000Z,123
2019-05-20T17:07:03.000Z,118
2019-05-20T17:08:25.000Z,118
2019-05-20T17:09:47.000Z,118
2019-05-20T17:11:09.000Z,123
2019-05-20T17:12:22.000Z,123
2019-05-20T17:13:35.000Z,118
2019-05-20T17:14:58.000Z,123
2019-05-20T17:16:20.000Z,123
2019-05-20T17:17:42.000Z,118
2019-05-20T17:19:05.000Z,118
2019-05-20T17:20:27.000Z,106
2019-05-20T17:21:49.000Z,106
2019-05-20T17:23:12.000Z,106
2019-05-20T17:24:34.000Z,101
2019-05-20T17:25:56.000Z,101
2019-05-20T17:27:09.000Z,95
2019-05-20T17:29:45.000Z,73
2019-05-20T17:31:07.000Z,67
2019-05-20T17:33:51.000Z,61
2019-05-20T17:35:14.000Z,61
2019-05-20T17:37:58.000Z,50
2019-05-20T17:39:21.000Z,45
2019-05-20T17:40:43.000Z,39
2019-05-20T17:41:56.000Z,45
2019-05-20T17:43:09.000Z,50
2019-05-20T17:44:31.000Z,45
2019-05-20T17:48:38.000Z,33
2019-05-20T17:50:01.000Z,22
2019-05-20T17:52:45.000Z,28
2019-05-20T17:54:08.000Z,28
2019-05-20T17:55:30.000Z,33
2019-05-20T17:56:43.000Z,33
2019-05-20T17:57:56.000Z,33
2019-05-20T17:59:18.000Z,33
2019-05-20T18:00:40.000Z,33
2019-05-20T18:02:03.000Z,33
2019-05-20T18:03:25.000Z,28
2019-05-20T18:04:47.000Z,28
2019-05-20T18:06:10.000Z,28
2019-05-20T18:07:32.000Z,22
2019-05-20T18:08:54.000Z,22
2019-05-20T18:10:17.000Z,22
2019-05-20T18:11:30.000Z,16
2019-05-20T18:12:43.000Z,16
2019-05-20T18:14:05.000Z,16
2019-05-20T18:15:27.000Z,11
2019-05-20T18:16:50.000Z,11
2019-05-20T18:18:12.000Z,11
2019-05-20T18:19:34.000Z,11
2019-05-20T18:20:56.000Z,11
2019-05-20T18:22:19.000Z,5
2019-05-20T18:23:41.000Z,5
2019-05-20T18:25:03.000Z,5
2019-05-20T18:26:16.000Z,5
2019-05-20T18:27:29.000Z,5
2019-05-20T18:28:52.000Z,5
2019-05-20T18:30:14.000Z,5
2019-05-20T18:31:36.000Z,0
2019-05-20T18:32:59.000Z,0
2019-05-20T18:34:21.000Z,0
2019-05-20T18:35:43.000Z,0
2019-05-20T18:37:06.000Z,0
2019-05-20T18:38:28.000Z,0
2019-05-20T18:41:03.000Z,0
2019-05-20T18:45:01.000Z,0
2019-05-20T18:46:23.000Z,0
2019-05-20T18:47:45.000Z,0
2019-05-20T18:51:52.000Z,0
2019-05-20T18:53:15.000Z,0
2019-05-20T18:54:37.000Z,0
2019-05-20T18:55:50.000Z,0
2019-05-20T18:57:03.000Z,0
2019-05-20T18:58:25.000Z,0
2019-05-20T18:59:48.000Z,0
2019-05-20T19:02:32.000Z,0
2019-05-20T19:03:54.000Z,0
2019-05-20T19:05:17.000Z,0
2019-05-20T19:08:01.000Z,0
2019-05-20T19:10:37.000Z,0
2019-05-20T19:11:50.000Z,0
2019-05-20T19:13:12.000Z,0
2019-05-20T19:17:19.000Z,0
2019-05-20T19:18:41.000Z,0
2019-05-20T19:20:04.000Z,0
2019-05-20T19:21:26.000Z,0
2019-05-20T19:22:48.000Z,0
2019-05-20T19:25:24.000Z,0
2019-05-20T19:26:36.000Z,0
2019-05-20T19:27:59.000Z,0
2019-05-20T19:30:43.000Z,0
2019-05-20T19:32:06.000Z,0
2019-05-20T19:33:28.000Z,0
2019-05-20T19:34:50.000Z,0
2019-05-20T19:38:57.000Z,0
2019-05-20T19:40:10.000Z,0
2019-05-20T19:41:23.000Z,0
2019-05-20T19:44:08.000Z,0
2019-05-20T19:48:15.000Z,0
2019-05-20T19:49:37.000Z,0
2019-05-20T19:52:22.000Z,0
2019-05-20T19:53:44.000Z,0
2019-05-20T19:57:32.000Z,0
2019-05-20T19:58:55.000Z,0
2019-05-20T20:01:39.000Z,0
2019-05-20T20:05:46.000Z,0
2019-05-20T20:09:44.000Z,0
2019-05-20T20:12:19.000Z,0
2019-05-20T20:15:04.000Z,0
2019-05-20T20:16:26.000Z,0
2019-05-20T20:21:55.000Z,0
2019-05-20T20:24:31.000Z,0
2019-05-20T20:27:06.000Z,0
2019-05-20T20:28:28.000Z,0
2019-05-20T20:31:13.000Z,0
2019-05-20T20:36:42.000Z,0
2019-05-20T20:39:17.000Z,0
2019-05-20T20:43:15.000Z,0
2019-05-20T20:46:00.000Z,0
2019-05-20T20:47:22.000Z,0
2019-05-20T20:50:07.000Z,0
2019-05-20T20:51:29.000Z,0
2019-05-20T20:55:17.000Z,0
2019-05-20T20:56:39.000Z,0
2019-05-20T20:59:24.000Z,0
2019-05-20T21:03:31.000Z,0
2019-05-20T21:04:53.000Z,0
2019-05-20T21:07:38.000Z,0
2019-05-20T21:10:04.000Z,0
2019-05-20T21:12:49.000Z,0
2019-05-20T21:14:11.000Z,0
2019-05-20T21:18:18.000Z,0
2019-05-20T21:22:25.000Z,0
2019-05-20T21:23:38.000Z,0
2019-05-20T21:27:35.000Z,0
2019-05-20T21:30:20.000Z,0
2019-05-20T21:31:42.000Z,0
2019-05-20T21:35:49.000Z,0
2019-05-20T21:37:12.000Z,0
2019-05-20T21:38:25.000Z,0
2019-05-20T21:39:37.000Z,0
2019-05-20T21:41:00.000Z,0
2019-05-20T21:45:07.000Z,0
2019-05-20T21:46:29.000Z,0
2019-05-20T21:47:51.000Z,0
2019-05-20T21:50:36.000Z,0
2019-05-20T21:57:09.000Z,0
2019-05-20T21:59:54.000Z,0
2019-05-20T22:04:01.000Z,0
2019-05-20T22:05:23.000Z,0
2019-05-20T22:06:45.000Z,0
2019-05-20T22:07:58.000Z,0
2019-05-20T22:10:33.000Z,0
2019-05-20T22:11:56.000Z,0
2019-05-20T22:14:40.000Z,0
2019-05-20T22:18:47.000Z,0
2019-05-20T22:20:10.000Z,0
2019-05-20T22:22:45.000Z,0
2019-05-20T22:23:58.000Z,0
2019-05-20T22:25:20.000Z,0
2019-05-20T22:28:05.000Z,0
2019-05-20T22:29:27.000Z,0
2019-05-20T22:32:12.000Z,0
2019-05-20T22:33:34.000Z,0
2019-05-20T22:36:19.000Z,0
2019-05-20T22:37:32.000Z,0
2019-05-20T22:40:07.000Z,0
2019-05-20T22:41:29.000Z,0
2019-05-20T22:42:52.000Z,0
2019-05-20T22:45:36.000Z,0
2019-05-20T22:46:59.000Z,0
2019-05-20T22:51:06.000Z,0
2019-05-20T22:52:18.000Z,0
2019-05-20T22:53:31.000Z,0
2019-05-20T22:54:54.000Z,0
2019-05-20T22:59:01.000Z,0
2019-05-20T23:03:08.000Z,0
2019-05-20T23:04:30.000Z,0
2019-05-20T23:05:52.000Z,0
2019-05-20T23:07:05.000Z,0
2019-05-20T23:08:18.000Z,0
2019-05-20T23:09:41.000Z,0
2019-05-20T23:11:03.000Z,0
2019-05-20T23:12:25.000Z,0
2019-05-20T23:13:47.000Z,0
2019-05-20T23:17:54.000Z,0
2019-05-20T23:20:39.000Z,0
2019-05-20T23:21:52.000Z,0
2019-05-20T23:23:05.000Z,0
2019-05-20T23:25:50.000Z,0
2019-05-20T23:27:12.000Z,0
2019-05-20T23:28:34.000Z,0
2019-05-20T23:29:57.000Z,0
2019-05-20T23:31:19.000Z,0
2019-05-20T23:34:04.000Z,0
2019-05-20T23:35:26.000Z,0
2019-05-20T23:37:52.000Z,0
2019-05-20T23:39:14.000Z,0
2019-05-20T23:40:36.000Z,0
2019-05-20T23:41:59.000Z,0
2019-05-20T23:43:21.000Z,0
2019-05-20T23:44:43.000Z,0
2019-05-20T23:46:06.000Z,0
2019-05-20T23:47:28.000Z,0
2019-05-20T23:48:50.000Z,0
2019-05-20T23:50:13.000Z,0
2019-05-20T23:51:26.000Z,0
2019-05-20T23:52:39.000Z,0
2019-05-20T23:55:23.000Z,0
2019-05-20T23:56:46.000Z,0
2019-05-20T23:58:08.000Z,0
2019-05-20T23:59:30.000Z,0
